sensor_id;sensor_type;location;lat;lon;timestamp;temperature;humidity
9837;DHT22;4957;51.412;6.724;2022-12-18T00:01:36;-4.00;96.00
9837;DHT22;4957;51.412;6.724;2022-12-18T00:04:05;-4.00;96.00
9837;DHT22;4957;51.412;6.724;2022-12-18T00:06:32;-4.10;96.00
9837;DHT22;4957;51.412;6.724;2022-12-18T00:09:02;-4.10;96.00
9837;DHT22;4957;51.412;6.724;2022-12-18T00:11:30;-4.10;96.00
9837;DHT22;4957;51.412;6.724;2022-12-18T00:13:58;-4.10;96.00
9837;DHT22;4957;51.412;6.724;2022-12-18T00:16:25;-4.10;96.00
9837;DHT22;4957;51.412;6.724;2022-12-18T00:18:54;-4.10;96.00
9837;DHT22;4957;51.412;6.724;2022-12-18T00:21:20;-4.20;95.90
9837;DHT22;4957;51.412;6.724;2022-12-18T00:23:47;-4.20;95.90
9837;DHT22;4957;51.412;6.724;2022-12-18T00:26:16;-4.20;95.90
9837;DHT22;4957;51.412;6.724;2022-12-18T00:28:43;-4.20;95.90
9837;DHT22;4957;51.412;6.724;2022-12-18T00:31:12;-4.20;95.90
9837;DHT22;4957;51.412;6.724;2022-12-18T00:33:38;-4.30;95.80
9837;DHT22;4957;51.412;6.724;2022-12-18T00:36:15;-4.30;95.90
9837;DHT22;4957;51.412;6.724;2022-12-18T00:38:41;-4.30;95.90
9837;DHT22;4957;51.412;6.724;2022-12-18T00:41:08;-4.30;95.90
9837;DHT22;4957;51.412;6.724;2022-12-18T00:43:34;-4.30;95.90
9837;DHT22;4957;51.412;6.724;2022-12-18T00:46:00;-4.30;95.90
9837;DHT22;4957;51.412;6.724;2022-12-18T00:48:25;-4.30;95.90
9837;DHT22;4957;51.412;6.724;2022-12-18T00:50:51;-4.30;95.90
9837;DHT22;4957;51.412;6.724;2022-12-18T00:53:17;-4.30;95.90
9837;DHT22;4957;51.412;6.724;2022-12-18T00:55:44;-4.40;95.90
9837;DHT22;4957;51.412;6.724;2022-12-18T00:58:10;-4.40;95.80
9837;DHT22;4957;51.412;6.724;2022-12-18T01:00:37;-4.50;95.80
9837;DHT22;4957;51.412;6.724;2022-12-18T01:03:03;-4.50;95.80
9837;DHT22;4957;51.412;6.724;2022-12-18T01:05:30;-4.50;95.80
9837;DHT22;4957;51.412;6.724;2022-12-18T01:07:56;-4.60;95.80
9837;DHT22;4957;51.412;6.724;2022-12-18T01:10:22;-4.50;95.80
9837;DHT22;4957;51.412;6.724;2022-12-18T01:12:48;-4.50;95.90
9837;DHT22;4957;51.412;6.724;2022-12-18T01:15:15;-4.50;95.80
9837;DHT22;4957;51.412;6.724;2022-12-18T01:17:41;-4.50;95.80
9837;DHT22;4957;51.412;6.724;2022-12-18T01:20:08;-4.50;95.80
9837;DHT22;4957;51.412;6.724;2022-12-18T01:22:35;-4.60;95.80
9837;DHT22;4957;51.412;6.724;2022-12-18T01:25:03;-4.60;95.80
9837;DHT22;4957;51.412;6.724;2022-12-18T01:27:29;-4.60;95.80
9837;DHT22;4957;51.412;6.724;2022-12-18T01:29:55;-4.60;95.80
9837;DHT22;4957;51.412;6.724;2022-12-18T01:32:21;-4.60;95.80
9837;DHT22;4957;51.412;6.724;2022-12-18T01:34:47;-4.60;95.80
9837;DHT22;4957;51.412;6.724;2022-12-18T01:37:13;-4.60;95.90
9837;DHT22;4957;51.412;6.724;2022-12-18T01:39:38;-4.60;96.00
9837;DHT22;4957;51.412;6.724;2022-12-18T01:42:15;-4.60;96.00
9837;DHT22;4957;51.412;6.724;2022-12-18T01:47:44;-4.60;96.10
9837;DHT22;4957;51.412;6.724;2022-12-18T01:50:27;-4.60;96.10
9837;DHT22;4957;51.412;6.724;2022-12-18T01:55:30;-4.60;96.20
9837;DHT22;4957;51.412;6.724;2022-12-18T01:57:58;-4.60;96.20
9837;DHT22;4957;51.412;6.724;2022-12-18T02:00:26;-4.70;96.10
9837;DHT22;4957;51.412;6.724;2022-12-18T02:02:52;-4.70;96.20
9837;DHT22;4957;51.412;6.724;2022-12-18T02:05:41;-4.70;96.20
9837;DHT22;4957;51.412;6.724;2022-12-18T02:08:31;-4.70;96.20
9837;DHT22;4957;51.412;6.724;2022-12-18T02:11:18;-4.80;96.20
9837;DHT22;4957;51.412;6.724;2022-12-18T02:14:33;-4.80;96.30
9837;DHT22;4957;51.412;6.724;2022-12-18T02:23:03;-4.90;96.40
9837;DHT22;4957;51.412;6.724;2022-12-18T02:28:23;-4.90;96.50
9837;DHT22;4957;51.412;6.724;2022-12-18T02:30:52;-4.90;96.50
9837;DHT22;4957;51.412;6.724;2022-12-18T02:33:19;-4.90;96.50
9837;DHT22;4957;51.412;6.724;2022-12-18T02:35:47;-4.90;96.60
9837;DHT22;4957;51.412;6.724;2022-12-18T02:38:14;-4.90;96.60
9837;DHT22;4957;51.412;6.724;2022-12-18T02:40:42;-4.90;96.70
9837;DHT22;4957;51.412;6.724;2022-12-18T02:43:11;-4.80;96.70
9837;DHT22;4957;51.412;6.724;2022-12-18T02:45:46;-4.80;96.70
9837;DHT22;4957;51.412;6.724;2022-12-18T02:48:13;-4.80;96.70
9837;DHT22;4957;51.412;6.724;2022-12-18T02:50:45;-4.80;96.70
9837;DHT22;4957;51.412;6.724;2022-12-18T02:54:09;-4.80;96.70
9837;DHT22;4957;51.412;6.724;2022-12-18T02:56:39;-4.80;96.70
9837;DHT22;4957;51.412;6.724;2022-12-18T02:59:13;-4.80;96.70
9837;DHT22;4957;51.412;6.724;2022-12-18T03:04:40;-4.80;96.70
9837;DHT22;4957;51.412;6.724;2022-12-18T03:07:14;-4.70;96.80
9837;DHT22;4957;51.412;6.724;2022-12-18T03:09:43;-4.80;96.70
9837;DHT22;4957;51.412;6.724;2022-12-18T03:12:28;-4.80;96.80
9837;DHT22;4957;51.412;6.724;2022-12-18T03:17:43;-4.80;96.90
9837;DHT22;4957;51.412;6.724;2022-12-18T03:20:16;-4.80;96.80
9837;DHT22;4957;51.412;6.724;2022-12-18T03:22:45;-4.80;96.90
9837;DHT22;4957;51.412;6.724;2022-12-18T03:25:14;-4.80;96.90
9837;DHT22;4957;51.412;6.724;2022-12-18T03:27:43;-4.80;97.00
9837;DHT22;4957;51.412;6.724;2022-12-18T03:30:14;-4.80;97.00
9837;DHT22;4957;51.412;6.724;2022-12-18T03:35:31;-4.80;97.20
9837;DHT22;4957;51.412;6.724;2022-12-18T03:37:59;-4.80;97.20
9837;DHT22;4957;51.412;6.724;2022-12-18T03:40:31;-4.80;97.20
9837;DHT22;4957;51.412;6.724;2022-12-18T03:43:07;-4.80;97.30
9837;DHT22;4957;51.412;6.724;2022-12-18T03:45:52;-4.80;97.30
9837;DHT22;4957;51.412;6.724;2022-12-18T03:51:16;-4.80;97.40
9837;DHT22;4957;51.412;6.724;2022-12-18T03:54:00;-4.80;97.50
9837;DHT22;4957;51.412;6.724;2022-12-18T03:56:30;-4.70;97.60
9837;DHT22;4957;51.412;6.724;2022-12-18T03:58:58;-4.70;97.60
9837;DHT22;4957;51.412;6.724;2022-12-18T04:01:30;-4.70;97.60
9837;DHT22;4957;51.412;6.724;2022-12-18T04:03:58;-4.70;97.70
9837;DHT22;4957;51.412;6.724;2022-12-18T04:06:25;-4.70;97.70
9837;DHT22;4957;51.412;6.724;2022-12-18T04:08:51;-4.70;97.70
9837;DHT22;4957;51.412;6.724;2022-12-18T04:11:17;-4.70;97.80
9837;DHT22;4957;51.412;6.724;2022-12-18T04:13:43;-4.70;97.80
9837;DHT22;4957;51.412;6.724;2022-12-18T04:16:08;-4.60;97.90
9837;DHT22;4957;51.412;6.724;2022-12-18T04:18:35;-4.60;97.90
9837;DHT22;4957;51.412;6.724;2022-12-18T04:21:02;-4.60;97.90
9837;DHT22;4957;51.412;6.724;2022-12-18T04:23:27;-4.60;98.00
9837;DHT22;4957;51.412;6.724;2022-12-18T04:25:53;-4.60;98.00
9837;DHT22;4957;51.412;6.724;2022-12-18T04:28:20;-4.60;98.00
9837;DHT22;4957;51.412;6.724;2022-12-18T04:30:45;-4.60;98.00
9837;DHT22;4957;51.412;6.724;2022-12-18T04:33:14;-4.60;98.00
9837;DHT22;4957;51.412;6.724;2022-12-18T04:35:43;-4.60;98.00
9837;DHT22;4957;51.412;6.724;2022-12-18T04:38:09;-4.50;98.10
9837;DHT22;4957;51.412;6.724;2022-12-18T04:40:36;-4.60;98.10
9837;DHT22;4957;51.412;6.724;2022-12-18T04:43:02;-4.60;98.10
9837;DHT22;4957;51.412;6.724;2022-12-18T04:45:28;-4.50;98.10
9837;DHT22;4957;51.412;6.724;2022-12-18T04:47:53;-4.50;98.10
9837;DHT22;4957;51.412;6.724;2022-12-18T04:50:19;-4.50;98.10
9837;DHT22;4957;51.412;6.724;2022-12-18T04:52:45;-4.50;98.10
9837;DHT22;4957;51.412;6.724;2022-12-18T04:55:10;-4.50;98.10
9837;DHT22;4957;51.412;6.724;2022-12-18T04:57:36;-4.50;98.10
9837;DHT22;4957;51.412;6.724;2022-12-18T05:00:03;-4.50;98.10
9837;DHT22;4957;51.412;6.724;2022-12-18T05:02:29;-4.50;98.10
9837;DHT22;4957;51.412;6.724;2022-12-18T05:04:54;-4.50;98.10
9837;DHT22;4957;51.412;6.724;2022-12-18T05:07:20;-4.50;98.10
9837;DHT22;4957;51.412;6.724;2022-12-18T05:09:45;-4.50;98.10
9837;DHT22;4957;51.412;6.724;2022-12-18T05:12:11;-4.50;98.10
9837;DHT22;4957;51.412;6.724;2022-12-18T05:14:37;-4.50;98.10
9837;DHT22;4957;51.412;6.724;2022-12-18T05:17:02;-4.50;98.10
9837;DHT22;4957;51.412;6.724;2022-12-18T05:19:28;-4.50;98.10
9837;DHT22;4957;51.412;6.724;2022-12-18T05:21:54;-4.50;98.10
9837;DHT22;4957;51.412;6.724;2022-12-18T05:24:20;-4.50;98.10
9837;DHT22;4957;51.412;6.724;2022-12-18T05:26:45;-4.50;98.10
9837;DHT22;4957;51.412;6.724;2022-12-18T05:29:11;-4.50;98.10
9837;DHT22;4957;51.412;6.724;2022-12-18T05:31:38;-4.50;98.10
9837;DHT22;4957;51.412;6.724;2022-12-18T05:34:04;-4.50;98.00
9837;DHT22;4957;51.412;6.724;2022-12-18T05:36:30;-4.50;98.00
9837;DHT22;4957;51.412;6.724;2022-12-18T05:38:56;-4.50;98.00
9837;DHT22;4957;51.412;6.724;2022-12-18T05:41:22;-4.50;98.00
9837;DHT22;4957;51.412;6.724;2022-12-18T05:43:48;-4.50;98.00
9837;DHT22;4957;51.412;6.724;2022-12-18T05:46:16;-4.50;98.00
9837;DHT22;4957;51.412;6.724;2022-12-18T05:48:44;-4.50;98.00
9837;DHT22;4957;51.412;6.724;2022-12-18T05:51:20;-4.50;98.00
9837;DHT22;4957;51.412;6.724;2022-12-18T05:53:47;-4.50;98.00
9837;DHT22;4957;51.412;6.724;2022-12-18T05:56:18;-4.60;97.90
9837;DHT22;4957;51.412;6.724;2022-12-18T05:58:45;-4.50;98.00
9837;DHT22;4957;51.412;6.724;2022-12-18T06:03:38;-4.50;98.00
9837;DHT22;4957;51.412;6.724;2022-12-18T06:06:18;-4.60;98.00
9837;DHT22;4957;51.412;6.724;2022-12-18T06:08:44;-4.60;98.00
9837;DHT22;4957;51.412;6.724;2022-12-18T06:11:10;-4.50;98.00
9837;DHT22;4957;51.412;6.724;2022-12-18T06:13:37;-4.60;97.90
9837;DHT22;4957;51.412;6.724;2022-12-18T06:16:04;-4.60;97.90
9837;DHT22;4957;51.412;6.724;2022-12-18T06:18:30;-4.60;97.90
9837;DHT22;4957;51.412;6.724;2022-12-18T06:20:57;-4.60;97.90
9837;DHT22;4957;51.412;6.724;2022-12-18T06:23:23;-4.60;97.80
9837;DHT22;4957;51.412;6.724;2022-12-18T06:25:49;-4.60;97.80
9837;DHT22;4957;51.412;6.724;2022-12-18T06:28:15;-4.60;97.80
9837;DHT22;4957;51.412;6.724;2022-12-18T06:30:43;-4.70;97.70
9837;DHT22;4957;51.412;6.724;2022-12-18T06:33:09;-4.70;97.70
9837;DHT22;4957;51.412;6.724;2022-12-18T06:35:35;-4.70;97.70
9837;DHT22;4957;51.412;6.724;2022-12-18T06:38:01;-4.70;97.70
9837;DHT22;4957;51.412;6.724;2022-12-18T06:40:28;-4.70;97.80
9837;DHT22;4957;51.412;6.724;2022-12-18T06:42:53;-4.70;97.80
9837;DHT22;4957;51.412;6.724;2022-12-18T06:45:19;-4.70;97.80
9837;DHT22;4957;51.412;6.724;2022-12-18T06:47:45;-4.70;97.70
9837;DHT22;4957;51.412;6.724;2022-12-18T06:50:11;-4.70;97.70
9837;DHT22;4957;51.412;6.724;2022-12-18T06:52:37;-4.70;97.80
9837;DHT22;4957;51.412;6.724;2022-12-18T06:55:05;-4.80;97.70
9837;DHT22;4957;51.412;6.724;2022-12-18T06:57:30;-4.70;97.80
9837;DHT22;4957;51.412;6.724;2022-12-18T06:59:56;-4.70;97.80
9837;DHT22;4957;51.412;6.724;2022-12-18T07:02:22;-4.70;97.80
9837;DHT22;4957;51.412;6.724;2022-12-18T07:04:48;-4.70;97.70
9837;DHT22;4957;51.412;6.724;2022-12-18T07:07:16;-4.70;97.70
9837;DHT22;4957;51.412;6.724;2022-12-18T07:09:42;-4.80;97.60
9837;DHT22;4957;51.412;6.724;2022-12-18T07:12:08;-4.70;97.70
9837;DHT22;4957;51.412;6.724;2022-12-18T07:14:33;-4.70;97.60
9837;DHT22;4957;51.412;6.724;2022-12-18T07:16:59;-4.70;97.60
9837;DHT22;4957;51.412;6.724;2022-12-18T07:19:25;-4.70;97.60
9837;DHT22;4957;51.412;6.724;2022-12-18T07:21:51;-4.70;97.60
9837;DHT22;4957;51.412;6.724;2022-12-18T07:24:17;-4.70;97.60
9837;DHT22;4957;51.412;6.724;2022-12-18T07:26:45;-4.70;97.60
9837;DHT22;4957;51.412;6.724;2022-12-18T07:29:10;-4.70;97.60
9837;DHT22;4957;51.412;6.724;2022-12-18T07:31:36;-4.70;97.60
9837;DHT22;4957;51.412;6.724;2022-12-18T07:34:02;-4.70;97.60
9837;DHT22;4957;51.412;6.724;2022-12-18T07:36:27;-4.70;97.60
9837;DHT22;4957;51.412;6.724;2022-12-18T07:38:53;-4.70;97.60
9837;DHT22;4957;51.412;6.724;2022-12-18T07:41:19;-4.70;97.60
9837;DHT22;4957;51.412;6.724;2022-12-18T07:43:45;-4.70;97.70
9837;DHT22;4957;51.412;6.724;2022-12-18T07:46:11;-4.70;97.70
9837;DHT22;4957;51.412;6.724;2022-12-18T07:48:39;-4.70;97.80
9837;DHT22;4957;51.412;6.724;2022-12-18T07:51:07;-4.70;97.80
9837;DHT22;4957;51.412;6.724;2022-12-18T07:53:34;-4.70;97.80
9837;DHT22;4957;51.412;6.724;2022-12-18T07:56:02;-4.70;98.20
9837;DHT22;4957;51.412;6.724;2022-12-18T07:58:29;-4.70;97.90
9837;DHT22;4957;51.412;6.724;2022-12-18T08:01:03;-4.70;97.90
9837;DHT22;4957;51.412;6.724;2022-12-18T08:03:29;-4.70;97.90
9837;DHT22;4957;51.412;6.724;2022-12-18T08:06:01;-4.70;98.00
9837;DHT22;4957;51.412;6.724;2022-12-18T08:08:27;-4.70;98.10
9837;DHT22;4957;51.412;6.724;2022-12-18T08:10:53;-4.70;98.10
9837;DHT22;4957;51.412;6.724;2022-12-18T08:13:19;-4.70;98.10
9837;DHT22;4957;51.412;6.724;2022-12-18T08:15:45;-4.60;98.20
9837;DHT22;4957;51.412;6.724;2022-12-18T08:18:10;-4.70;98.10
9837;DHT22;4957;51.412;6.724;2022-12-18T08:20:36;-4.60;98.20
9837;DHT22;4957;51.412;6.724;2022-12-18T08:23:02;-4.60;98.30
9837;DHT22;4957;51.412;6.724;2022-12-18T08:25:27;-4.60;98.30
9837;DHT22;4957;51.412;6.724;2022-12-18T08:27:53;-4.60;98.70
9837;DHT22;4957;51.412;6.724;2022-12-18T08:30:19;-4.60;98.40
9837;DHT22;4957;51.412;6.724;2022-12-18T08:32:45;-4.60;98.40
9837;DHT22;4957;51.412;6.724;2022-12-18T08:35:11;-4.50;98.60
9837;DHT22;4957;51.412;6.724;2022-12-18T08:37:37;-4.50;98.70
9837;DHT22;4957;51.412;6.724;2022-12-18T08:40:03;-4.50;98.70
9837;DHT22;4957;51.412;6.724;2022-12-18T08:42:29;-4.40;98.80
9837;DHT22;4957;51.412;6.724;2022-12-18T08:45:13;-4.40;98.90
9837;DHT22;4957;51.412;6.724;2022-12-18T08:47:39;-4.40;98.90
9837;DHT22;4957;51.412;6.724;2022-12-18T08:50:05;-4.30;99.00
9837;DHT22;4957;51.412;6.724;2022-12-18T08:52:32;-4.30;99.00
9837;DHT22;4957;51.412;6.724;2022-12-18T08:54:58;-4.20;99.10
9837;DHT22;4957;51.412;6.724;2022-12-18T08:57:23;-4.20;99.20
9837;DHT22;4957;51.412;6.724;2022-12-18T08:59:49;-4.20;99.20
9837;DHT22;4957;51.412;6.724;2022-12-18T09:02:15;-4.10;99.30
9837;DHT22;4957;51.412;6.724;2022-12-18T09:04:41;-4.00;99.50
9837;DHT22;4957;51.412;6.724;2022-12-18T09:07:06;-4.00;99.50
9837;DHT22;4957;51.412;6.724;2022-12-18T09:09:32;-4.00;99.60
9837;DHT22;4957;51.412;6.724;2022-12-18T09:11:58;-3.90;99.70
9837;DHT22;4957;51.412;6.724;2022-12-18T09:14:24;-3.90;99.80
9837;DHT22;4957;51.412;6.724;2022-12-18T09:16:49;-3.90;99.80
9837;DHT22;4957;51.412;6.724;2022-12-18T09:19:15;-3.80;99.90
9837;DHT22;4957;51.412;6.724;2022-12-18T09:21:41;-3.80;99.90
9837;DHT22;4957;51.412;6.724;2022-12-18T09:24:12;-3.80;99.90
9837;DHT22;4957;51.412;6.724;2022-12-18T09:26:38;-3.70;99.90
9837;DHT22;4957;51.412;6.724;2022-12-18T09:29:03;-3.70;99.90
9837;DHT22;4957;51.412;6.724;2022-12-18T09:31:30;-3.60;99.90
9837;DHT22;4957;51.412;6.724;2022-12-18T09:33:56;-3.60;99.90
9837;DHT22;4957;51.412;6.724;2022-12-18T09:36:22;-3.50;99.90
9837;DHT22;4957;51.412;6.724;2022-12-18T09:38:47;-3.40;99.90
9837;DHT22;4957;51.412;6.724;2022-12-18T09:42:01;-3.40;99.90
9837;DHT22;4957;51.412;6.724;2022-12-18T09:44:34;-3.40;99.90
9837;DHT22;4957;51.412;6.724;2022-12-18T09:47:05;-3.30;99.90
9837;DHT22;4957;51.412;6.724;2022-12-18T09:49:41;-3.30;99.90
9837;DHT22;4957;51.412;6.724;2022-12-18T09:52:27;-3.20;99.90
9837;DHT22;4957;51.412;6.724;2022-12-18T09:57:33;-3.10;99.90
9837;DHT22;4957;51.412;6.724;2022-12-18T10:00:20;-3.10;99.90
9837;DHT22;4957;51.412;6.724;2022-12-18T10:02:47;-3.10;99.90
9837;DHT22;4957;51.412;6.724;2022-12-18T10:05:28;-3.00;99.90
9837;DHT22;4957;51.412;6.724;2022-12-18T10:10:57;-2.90;99.90
9837;DHT22;4957;51.412;6.724;2022-12-18T10:13:31;-2.90;99.90
9837;DHT22;4957;51.412;6.724;2022-12-18T10:16:19;-2.80;99.90
9837;DHT22;4957;51.412;6.724;2022-12-18T10:19:03;-2.80;99.90
9837;DHT22;4957;51.412;6.724;2022-12-18T10:21:49;-2.70;99.90
9837;DHT22;4957;51.412;6.724;2022-12-18T10:24:42;-2.60;99.90
9837;DHT22;4957;51.412;6.724;2022-12-18T10:27:17;-2.60;99.90
9837;DHT22;4957;51.412;6.724;2022-12-18T10:29:44;-2.50;99.90
9837;DHT22;4957;51.412;6.724;2022-12-18T10:32:19;-2.50;99.90
9837;DHT22;4957;51.412;6.724;2022-12-18T10:34:47;-2.40;99.90
9837;DHT22;4957;51.412;6.724;2022-12-18T10:37:20;-2.40;99.90
9837;DHT22;4957;51.412;6.724;2022-12-18T10:40:12;-2.30;99.90
9837;DHT22;4957;51.412;6.724;2022-12-18T10:42:38;-2.30;99.90
9837;DHT22;4957;51.412;6.724;2022-12-18T10:45:12;-2.30;99.90
9837;DHT22;4957;51.412;6.724;2022-12-18T10:47:49;-2.20;99.90
9837;DHT22;4957;51.412;6.724;2022-12-18T10:50:30;-2.20;99.90
9837;DHT22;4957;51.412;6.724;2022-12-18T10:52:59;-2.20;99.90
9837;DHT22;4957;51.412;6.724;2022-12-18T10:55:34;-2.10;99.90
9837;DHT22;4957;51.412;6.724;2022-12-18T10:58:28;-2.10;99.90
9837;DHT22;4957;51.412;6.724;2022-12-18T11:06:19;-1.90;99.90
9837;DHT22;4957;51.412;6.724;2022-12-18T11:09:04;-1.90;99.90
9837;DHT22;4957;51.412;6.724;2022-12-18T11:11:32;-1.90;99.90
9837;DHT22;4957;51.412;6.724;2022-12-18T11:14:07;-1.80;99.90
9837;DHT22;4957;51.412;6.724;2022-12-18T11:16:44;-1.80;99.90
9837;DHT22;4957;51.412;6.724;2022-12-18T11:21:50;-1.70;99.90
9837;DHT22;4957;51.412;6.724;2022-12-18T11:24:26;-1.70;99.90
9837;DHT22;4957;51.412;6.724;2022-12-18T11:26:54;-1.60;99.90
9837;DHT22;4957;51.412;6.724;2022-12-18T11:29:28;-1.60;99.90
9837;DHT22;4957;51.412;6.724;2022-12-18T11:32:20;-1.60;99.90
9837;DHT22;4957;51.412;6.724;2022-12-18T11:34:54;-1.50;99.90
9837;DHT22;4957;51.412;6.724;2022-12-18T11:37:21;-1.40;99.90
9837;DHT22;4957;51.412;6.724;2022-12-18T11:39:59;-1.40;99.90
9837;DHT22;4957;51.412;6.724;2022-12-18T11:42:44;-1.30;99.90
9837;DHT22;4957;51.412;6.724;2022-12-18T11:47:58;-1.10;99.90
9837;DHT22;4957;51.412;6.724;2022-12-18T11:53:13;-1.00;99.90
9837;DHT22;4957;51.412;6.724;2022-12-18T11:58:34;-0.90;99.90
9837;DHT22;4957;51.412;6.724;2022-12-18T12:01:24;-0.90;99.90
9837;DHT22;4957;51.412;6.724;2022-12-18T12:09:03;-0.80;99.90
9837;DHT22;4957;51.412;6.724;2022-12-18T12:11:56;-0.80;99.90
9837;DHT22;4957;51.412;6.724;2022-12-18T12:22:49;-0.70;99.90
9837;DHT22;4957;51.412;6.724;2022-12-18T12:37:00;-0.40;99.90
9837;DHT22;4957;51.412;6.724;2022-12-18T12:39:35;-0.30;99.90
9837;DHT22;4957;51.412;6.724;2022-12-18T12:42:04;-0.30;99.90
9837;DHT22;4957;51.412;6.724;2022-12-18T12:44:53;-0.30;99.90
9837;DHT22;4957;51.412;6.724;2022-12-18T12:47:28;-0.30;99.90
9837;DHT22;4957;51.412;6.724;2022-12-18T12:49:57;-0.20;99.90
9837;DHT22;4957;51.412;6.724;2022-12-18T12:52:35;-0.20;99.90
9837;DHT22;4957;51.412;6.724;2022-12-18T12:55:12;-0.20;99.90
9837;DHT22;4957;51.412;6.724;2022-12-18T12:57:41;-0.20;99.90
9837;DHT22;4957;51.412;6.724;2022-12-18T13:00:17;-0.20;99.90
9837;DHT22;4957;51.412;6.724;2022-12-18T13:03:08;-0.10;99.90
9837;DHT22;4957;51.412;6.724;2022-12-18T13:06:18;-0.10;99.90
9837;DHT22;4957;51.412;6.724;2022-12-18T13:09:02;-0.10;99.90
9837;DHT22;4957;51.412;6.724;2022-12-18T13:20:13;-0.10;99.90
9837;DHT22;4957;51.412;6.724;2022-12-18T13:22:43;-0.10;99.90
9837;DHT22;4957;51.412;6.724;2022-12-18T13:25:34;0.00;99.90
9837;DHT22;4957;51.412;6.724;2022-12-18T13:28:03;0.00;99.90
9837;DHT22;4957;51.412;6.724;2022-12-18T13:40:57;0.10;99.90
9837;DHT22;4957;51.412;6.724;2022-12-18T13:46:29;0.10;99.90
9837;DHT22;4957;51.412;6.724;2022-12-18T13:51:43;0.10;99.90
9837;DHT22;4957;51.412;6.724;2022-12-18T13:56:52;0.20;99.90
9837;DHT22;4957;51.412;6.724;2022-12-18T13:59:44;0.20;99.90
9837;DHT22;4957;51.412;6.724;2022-12-18T14:02:17;0.20;99.90
9837;DHT22;4957;51.412;6.724;2022-12-18T14:04:46;0.20;99.90
9837;DHT22;4957;51.412;6.724;2022-12-18T14:07:24;0.20;99.90
9837;DHT22;4957;51.412;6.724;2022-12-18T14:09:53;0.20;99.90
9837;DHT22;4957;51.412;6.724;2022-12-18T14:12:28;0.20;99.90
9837;DHT22;4957;51.412;6.724;2022-12-18T14:15:31;0.20;99.70
9837;DHT22;4957;51.412;6.724;2022-12-18T14:18:08;0.20;99.70
9837;DHT22;4957;51.412;6.724;2022-12-18T14:20:43;0.20;99.60
9837;DHT22;4957;51.412;6.724;2022-12-18T14:23:36;0.20;99.40
9837;DHT22;4957;51.412;6.724;2022-12-18T14:26:19;0.20;99.30
9837;DHT22;4957;51.412;6.724;2022-12-18T14:28:46;0.20;99.10
9837;DHT22;4957;51.412;6.724;2022-12-18T14:31:25;0.20;99.10
9837;DHT22;4957;51.412;6.724;2022-12-18T14:33:52;0.20;98.80
9837;DHT22;4957;51.412;6.724;2022-12-18T14:36:26;0.20;98.80
9837;DHT22;4957;51.412;6.724;2022-12-18T14:38:59;0.20;98.80
9837;DHT22;4957;51.412;6.724;2022-12-18T14:41:25;0.20;99.00
9837;DHT22;4957;51.412;6.724;2022-12-18T14:43:52;0.20;98.90
9837;DHT22;4957;51.412;6.724;2022-12-18T14:48:54;0.20;98.50
9837;DHT22;4957;51.412;6.724;2022-12-18T14:51:22;0.20;98.60
9837;DHT22;4957;51.412;6.724;2022-12-18T14:53:59;0.20;98.50
9837;DHT22;4957;51.412;6.724;2022-12-18T14:56:35;0.20;98.30
9837;DHT22;4957;51.412;6.724;2022-12-18T14:59:13;0.20;98.20
9837;DHT22;4957;51.412;6.724;2022-12-18T15:01:56;0.20;98.40
9837;DHT22;4957;51.412;6.724;2022-12-18T15:04:35;0.20;98.40
9837;DHT22;4957;51.412;6.724;2022-12-18T15:07:23;0.10;98.30
9837;DHT22;4957;51.412;6.724;2022-12-18T15:12:45;0.20;98.20
9837;DHT22;4957;51.412;6.724;2022-12-18T15:20:56;0.20;98.00
9837;DHT22;4957;51.412;6.724;2022-12-18T15:26:10;0.10;97.90
9837;DHT22;4957;51.412;6.724;2022-12-18T15:28:48;0.10;97.90
9837;DHT22;4957;51.412;6.724;2022-12-18T15:36:20;0.10;97.90
9837;DHT22;4957;51.412;6.724;2022-12-18T15:38:47;0.10;97.70
9837;DHT22;4957;51.412;6.724;2022-12-18T15:41:14;0.10;97.60
9837;DHT22;4957;51.412;6.724;2022-12-18T15:43:40;0.10;97.50
9837;DHT22;4957;51.412;6.724;2022-12-18T15:46:13;0.10;97.50
9837;DHT22;4957;51.412;6.724;2022-12-18T15:48:44;0.10;97.60
9837;DHT22;4957;51.412;6.724;2022-12-18T15:51:32;0.10;97.50
9837;DHT22;4957;51.412;6.724;2022-12-18T15:54:00;0.10;97.40
9837;DHT22;4957;51.412;6.724;2022-12-18T15:56:26;0.10;97.30
9837;DHT22;4957;51.412;6.724;2022-12-18T15:59:18;0.10;97.80
9837;DHT22;4957;51.412;6.724;2022-12-18T16:01:47;0.10;98.10
9837;DHT22;4957;51.412;6.724;2022-12-18T16:04:15;0.10;97.50
9837;DHT22;4957;51.412;6.724;2022-12-18T16:06:41;0.10;97.70
9837;DHT22;4957;51.412;6.724;2022-12-18T16:09:08;0.20;97.50
9837;DHT22;4957;51.412;6.724;2022-12-18T16:11:36;0.20;97.80
9837;DHT22;4957;51.412;6.724;2022-12-18T16:16:45;0.20;98.00
9837;DHT22;4957;51.412;6.724;2022-12-18T16:19:11;0.20;97.60
9837;DHT22;4957;51.412;6.724;2022-12-18T16:21:37;0.20;97.60
9837;DHT22;4957;51.412;6.724;2022-12-18T16:24:03;0.20;97.50
9837;DHT22;4957;51.412;6.724;2022-12-18T16:26:29;0.20;97.30
9837;DHT22;4957;51.412;6.724;2022-12-18T16:28:58;0.20;97.40
9837;DHT22;4957;51.412;6.724;2022-12-18T16:31:23;0.20;97.60
9837;DHT22;4957;51.412;6.724;2022-12-18T16:33:49;0.10;97.40
9837;DHT22;4957;51.412;6.724;2022-12-18T16:36:15;0.10;97.40
9837;DHT22;4957;51.412;6.724;2022-12-18T16:38:40;0.10;97.50
9837;DHT22;4957;51.412;6.724;2022-12-18T16:41:19;0.10;97.50
9837;DHT22;4957;51.412;6.724;2022-12-18T16:43:58;0.10;97.40
9837;DHT22;4957;51.412;6.724;2022-12-18T16:46:23;0.10;97.40
9837;DHT22;4957;51.412;6.724;2022-12-18T16:48:49;0.10;97.60
9837;DHT22;4957;51.412;6.724;2022-12-18T16:51:15;0.00;97.70
9837;DHT22;4957;51.412;6.724;2022-12-18T16:53:40;0.00;97.60
9837;DHT22;4957;51.412;6.724;2022-12-18T16:56:06;0.00;97.50
9837;DHT22;4957;51.412;6.724;2022-12-18T16:58:32;0.00;97.20
9837;DHT22;4957;51.412;6.724;2022-12-18T17:00:58;0.00;97.40
9837;DHT22;4957;51.412;6.724;2022-12-18T17:03:24;0.00;97.00
9837;DHT22;4957;51.412;6.724;2022-12-18T17:05:50;0.00;97.20
9837;DHT22;4957;51.412;6.724;2022-12-18T17:08:15;0.00;97.40
9837;DHT22;4957;51.412;6.724;2022-12-18T17:10:41;0.00;97.30
9837;DHT22;4957;51.412;6.724;2022-12-18T17:13:07;0.00;97.40
9837;DHT22;4957;51.412;6.724;2022-12-18T17:15:36;0.00;97.30
9837;DHT22;4957;51.412;6.724;2022-12-18T17:18:01;0.00;97.20
9837;DHT22;4957;51.412;6.724;2022-12-18T17:20:29;0.00;97.30
9837;DHT22;4957;51.412;6.724;2022-12-18T17:22:55;0.00;97.30
9837;DHT22;4957;51.412;6.724;2022-12-18T17:25:24;0.00;97.40
9837;DHT22;4957;51.412;6.724;2022-12-18T17:27:50;0.00;97.90
9837;DHT22;4957;51.412;6.724;2022-12-18T17:30:16;0.00;97.90
9837;DHT22;4957;51.412;6.724;2022-12-18T17:32:41;0.00;97.90
9837;DHT22;4957;51.412;6.724;2022-12-18T17:35:07;0.00;97.70
9837;DHT22;4957;51.412;6.724;2022-12-18T17:37:33;0.00;97.50
9837;DHT22;4957;51.412;6.724;2022-12-18T17:39:59;0.00;97.70
9837;DHT22;4957;51.412;6.724;2022-12-18T17:42:25;0.00;97.80
9837;DHT22;4957;51.412;6.724;2022-12-18T17:44:51;0.00;97.90
9837;DHT22;4957;51.412;6.724;2022-12-18T17:47:17;0.00;97.90
9837;DHT22;4957;51.412;6.724;2022-12-18T17:49:43;0.00;97.80
9837;DHT22;4957;51.412;6.724;2022-12-18T17:52:09;0.00;98.00
9837;DHT22;4957;51.412;6.724;2022-12-18T17:54:34;0.00;97.90
9837;DHT22;4957;51.412;6.724;2022-12-18T17:57:04;0.00;98.00
9837;DHT22;4957;51.412;6.724;2022-12-18T17:59:29;0.00;98.00
9837;DHT22;4957;51.412;6.724;2022-12-18T18:01:55;0.10;98.10
9837;DHT22;4957;51.412;6.724;2022-12-18T18:04:21;0.10;98.10
9837;DHT22;4957;51.412;6.724;2022-12-18T18:06:46;0.10;98.20
9837;DHT22;4957;51.412;6.724;2022-12-18T18:09:12;0.10;98.50
9837;DHT22;4957;51.412;6.724;2022-12-18T18:11:38;0.20;97.90
9837;DHT22;4957;51.412;6.724;2022-12-18T18:14:22;0.20;97.80
9837;DHT22;4957;51.412;6.724;2022-12-18T18:16:49;0.20;97.90
9837;DHT22;4957;51.412;6.724;2022-12-18T18:19:20;0.20;98.40
9837;DHT22;4957;51.412;6.724;2022-12-18T18:21:48;0.20;98.40
9837;DHT22;4957;51.412;6.724;2022-12-18T18:24:16;0.20;98.20
9837;DHT22;4957;51.412;6.724;2022-12-18T18:26:43;0.20;98.20
9837;DHT22;4957;51.412;6.724;2022-12-18T18:29:14;0.20;98.00
9837;DHT22;4957;51.412;6.724;2022-12-18T18:31:40;0.30;98.30